Time;durP1;ratioP1;P1;durP2;ratioP2;P2;SDS_P1;SDS_P2;PMS_P1;PMS_P2;Temp;Humidity;BMP_temperature;BMP_pressure;BME280_temperature;BME280_humidity;BME280_pressure;Samples;Min_cycle;Max_cycle;Signal;HPM_P1;HPM_P2
2023/06/08 00:02:10;;;;;;;16.97;8.33;;;;;;;11.51;59.49;99923.24;1570529;90;21078;-70
2023/06/08 00:04:40;;;;;;;12.35;7.85;;;;;;;11.49;59.57;99927.72;1536877;92;21025;-70
2023/06/08 00:07:08;;;;;;;19.02;7.97;;;;;;;11.49;59.80;99927.72;1567264;90;21101;-68
2023/06/08 00:09:34;;;;;;;10.68;7.90;;;;;;;11.50;59.96;99924.17;1587345;89;21570;-67
2023/06/08 00:12:00;;;;;;;16.43;8.50;;;;;;;11.41;60.08;99918.46;1585497;89;21001;-71
2023/06/08 00:14:30;;;;;;;14.38;8.20;;;;;;;11.41;60.08;99918.46;1586183;89;21523;-68
2023/06/08 00:16:57;;;;;;;14.87;9.03;;;;;;;11.37;60.39;99919.55;1588446;89;21025;-65
2023/06/08 00:19:24;;;;;;;17.20;9.15;;;;;;;11.38;60.56;99926.45;1589736;89;21044;-68
2023/06/08 00:21:52;;;;;;;24.87;9.60;;;;;;;11.35;60.56;99916.15;1588726;89;21144;-67
2023/06/08 00:24:19;;;;;;;;;;;;;;;11.31;60.72;99922.42;1591521;89;22232;-67
2023/06/08 00:26:46;;;;;;;15.53;8.05;;;;;;;11.32;61.34;99924.14;1587370;89;20167;-64
2023/06/08 00:29:12;;;;;;;16.62;8.20;;;;;;;11.32;61.04;99920.22;1587766;89;21121;-72
2023/06/08 00:31:38;;;;;;;13.90;8.63;;;;;;;11.32;61.27;99918.91;1586288;89;21369;-71
2023/06/08 00:34:05;;;;;;;16.95;8.55;;;;;;;11.30;61.19;99925.97;1585713;89;21059;-64
2023/06/08 00:36:31;;;;;;;13.83;7.40;;;;;;;11.25;61.19;99922.72;1588674;90;22244;-71
2023/06/08 00:38:57;;;;;;;16.12;8.58;;;;;;;11.23;61.28;99926.31;1587798;89;21598;-69
2023/06/08 00:41:25;;;;;;;11.38;7.45;;;;;;;11.19;61.41;99923.84;1587856;89;21089;-70
2023/06/08 00:43:51;;;;;;;10.75;7.05;;;;;;;11.17;61.43;99923.09;1588801;89;21008;-70
2023/06/08 00:46:19;;;;;;;15.40;7.20;;;;;;;11.13;61.48;99918.07;1588264;89;20973;-70
2023/06/08 00:48:46;;;;;;;16.52;7.30;;;;;;;11.10;61.65;99918.22;1588056;89;21001;-70
2023/06/08 00:51:16;;;;;;;18.27;8.80;;;;;;;11.06;61.74;99914.91;1589003;89;21583;-66
2023/06/08 00:53:43;;;;;;;13.80;7.65;;;;;;;11.04;61.80;99915.89;1588076;89;21563;-70
2023/06/08 00:56:11;;;;;;;12.63;8.25;;;;;;;10.98;61.71;99915.72;1589198;89;21017;-64
2023/06/08 00:58:38;;;;;;;13.75;7.78;;;;;;;10.93;61.97;99914.61;1588923;89;21104;-68
2023/06/08 01:01:04;;;;;;;16.97;8.35;;;;;;;10.87;62.13;99917.50;1588496;89;21028;-70
2023/06/08 01:03:38;;;;;;;13.45;7.55;;;;;;;10.84;62.13;99912.42;1588301;89;21060;-67
2023/06/08 01:06:04;;;;;;;14.63;8.43;;;;;;;10.78;62.18;99908.75;1586905;89;21060;-67
2023/06/08 01:08:52;;;;;;;19.42;9.03;;;;;;;10.70;62.29;99914.81;1586721;89;21053;-71
2023/06/08 01:11:35;;;;;;;13.05;8.88;;;;;;;10.65;62.59;99916.77;1583706;89;21105;-64
2023/06/08 01:14:21;;;;;;;12.28;7.75;;;;;;;10.66;62.75;99918.45;1600910;88;21087;-66
2023/06/08 01:16:52;;;;;;;13.40;7.45;;;;;;;10.60;62.78;99918.73;1606927;88;21080;-65
2023/06/08 01:19:54;;;;;;;10.93;7.47;;;;;;;10.58;62.97;99915.34;1557047;90;20978;-71
2023/06/08 01:22:27;;;;;;;20.65;9.73;;;;;;;10.60;63.09;99918.73;1555995;91;20996;-65
2023/06/08 01:24:56;;;;;;;13.00;8.53;;;;;;;10.61;63.17;99917.81;1552513;91;21030;-63
2023/06/08 01:27:25;;;;;;;16.73;8.58;;;;;;;10.64;63.41;99912.45;1549905;91;21070;-63
2023/06/08 01:29:51;;;;;;;15.45;7.60;;;;;;;10.65;63.44;99911.55;1555429;91;21056;-65
2023/06/08 01:32:21;;;;;;;8.58;7.17;;;;;;;10.63;63.56;99913.38;1604936;88;21032;-64
2023/06/08 01:34:49;;;;;;;16.05;7.25;;;;;;;10.59;63.57;99909.22;1598721;88;21027;-62
2023/06/08 01:37:21;;;;;;;11.93;6.97;;;;;;;10.55;63.45;99901.11;1602245;88;21095;-66
2023/06/08 01:40:00;;;;;;;13.72;7.22;;;;;;;10.48;63.51;99901.39;1599721;88;20989;-60
2023/06/08 01:42:28;;;;;;;14.47;8.78;;;;;;;10.45;63.69;99905.44;1609129;88;21114;-66
2023/06/08 01:45:01;;;;;;;13.75;8.43;;;;;;;10.45;63.92;99900.22;1600749;88;20975;-67
2023/06/08 01:47:31;;;;;;;14.35;7.92;;;;;;;10.45;64.16;99902.83;1577066;89;20994;-70
2023/06/08 01:50:00;;;;;;;16.80;8.03;;;;;;;10.45;64.23;99905.44;1548364;91;21035;-70
2023/06/08 01:52:27;;;;;;;13.20;8.55;;;;;;;10.44;64.36;99901.12;1585037;89;21102;-70
2023/06/08 01:54:54;;;;;;;15.70;8.18;;;;;;;10.45;64.45;99901.99;1586811;89;21016;-68
2023/06/08 01:57:20;;;;;;;12.55;8.68;;;;;;;10.46;64.58;99901.06;1586846;89;21096;-72
2023/06/08 01:59:46;;;;;;;12.03;7.70;;;;;;;10.47;64.61;99902.75;1586058;89;21029;-67
2023/06/08 02:02:12;;;;;;;9.50;7.25;;;;;;;10.47;64.76;99906.23;1606311;88;21515;-72
2023/06/08 02:04:39;;;;;;;12.33;6.87;;;;;;;10.47;64.85;99904.92;1609244;88;21019;-71
2023/06/08 02:07:05;;;;;;;10.35;7.25;;;;;;;10.45;64.98;99904.60;1542745;91;21056;-69
2023/06/08 02:09:36;;;;;;;10.25;6.58;;;;;;;10.42;64.90;99912.11;1575739;90;21087;-72
2023/06/08 02:12:07;;;;;;;15.30;8.30;;;;;;;10.36;64.88;99907.13;1560482;91;21077;-70
2023/06/08 02:14:35;;;;;;;10.78;6.47;;;;;;;10.37;64.95;99910.15;1543717;91;22049;-72
2023/06/08 02:17:03;;;;;;;10.88;6.83;;;;;;;10.36;65.02;99903.21;1544730;91;21511;-71
2023/06/08 02:19:34;;;;;;;11.93;7.92;;;;;;;10.41;65.53;99902.56;1603124;88;21588;-71
2023/06/08 02:22:01;;;;;;;11.20;6.75;;;;;;;10.47;65.77;99893.18;1600786;88;20957;-71
2023/06/08 02:24:31;;;;;;;14.43;8.90;;;;;;;10.52;65.61;99895.10;1592949;88;21138;-72
2023/06/08 02:26:58;;;;;;;13.18;8.40;;;;;;;10.55;65.57;99897.20;1603809;88;21020;-72
2023/06/08 02:29:24;;;;;;;17.60;9.80;;;;;;;10.59;65.70;99896.16;1608234;88;21040;-71
2023/06/08 02:31:50;;;;;;;20.65;10.90;;;;;;;10.63;65.81;99893.33;1603637;88;21023;-67
2023/06/08 02:34:17;;;;;;;13.58;8.63;;;;;;;10.69;66.05;99893.51;1601017;88;21075;-60
2023/06/08 02:36:44;;;;;;;17.02;10.03;;;;;;;10.77;66.06;99892.70;1599196;88;21044;-71
2023/06/08 02:39:10;;;;;;;14.50;9.80;;;;;;;10.83;66.12;99892.42;1607422;88;21016;-72
2023/06/08 02:41:36;;;;;;;15.20;7.85;;;;;;;10.87;66.05;99893.99;1600644;88;21542;-72
2023/06/08 02:44:03;;;;;;;18.75;7.92;;;;;;;10.88;65.97;99893.06;1604812;88;21500;-69
2023/06/08 02:46:31;;;;;;;10.23;7.35;;;;;;;10.87;65.88;99893.99;1594993;88;21032;-70
2023/06/08 02:48:57;;;;;;;15.23;7.95;;;;;;;10.87;66.01;99890.08;1598594;88;20921;-67
2023/06/08 02:51:23;;;;;;;12.60;7.00;;;;;;;10.90;66.06;99893.01;1605590;88;21012;-72
2023/06/08 02:53:50;;;;;;;17.00;11.43;;;;;;;10.92;66.06;99892.03;1595461;88;21092;-70
2023/06/08 02:56:16;;;;;;;15.23;10.32;;;;;;;10.97;66.35;99892.63;1598751;88;20984;-71
2023/06/08 02:58:46;;;;;;;22.98;11.93;;;;;;;11.08;66.53;99888.69;1602611;88;21068;-68
2023/06/08 03:01:14;;;;;;;14.70;8.85;;;;;;;11.17;66.60;99896.09;1596909;88;20992;-65
2023/06/08 03:03:38;;;;;;;12.13;8.55;;;;;;;11.28;66.68;99896.43;1595187;90;22338;-71
2023/06/08 03:06:05;;;;;;;13.10;9.73;;;;;;;11.35;66.59;99895.23;1605813;88;21087;-71
2023/06/08 03:08:31;;;;;;;16.50;8.97;;;;;;;11.46;66.77;99893.87;1604790;88;21639;-64
2023/06/08 03:10:58;;;;;;;12.60;8.58;;;;;;;11.55;66.74;99896.88;1602397;88;21032;-69
2023/06/08 03:13:24;;;;;;;12.07;7.03;;;;;;;11.60;66.62;99894.06;1597711;88;21035;-68
2023/06/08 03:15:52;;;;;;;12.50;7.55;;;;;;;11.60;66.52;99884.91;1589911;88;21017;-70
2023/06/08 03:18:24;;;;;;;13.72;8.10;;;;;;;11.62;66.74;99889.58;1594204;88;21020;-64
2023/06/08 03:20:47;;;;;;;12.55;7.12;;;;;;;11.62;66.74;99889.58;1597388;88;21040;-71
2023/06/08 03:23:15;;;;;;;12.85;6.97;;;;;;;11.55;66.78;99875.12;1592862;88;21088;-67
2023/06/08 03:25:41;;;;;;;13.18;7.45;;;;;;;11.70;66.96;99892.66;1596125;88;20957;-67
2023/06/08 03:28:08;;;;;;;17.20;10.55;;;;;;;11.76;67.27;99872.77;1587380;88;20969;-70
2023/06/08 03:30:34;;;;;;;16.37;9.48;;;;;;;11.97;67.13;99897.50;1595757;88;21067;-67
2023/06/08 03:33:05;;;;;;;16.07;9.20;;;;;;;11.97;67.13;99897.50;1603611;88;21503;-68
2023/06/08 03:35:29;;;;;;;12.70;7.90;;;;;;;12.13;67.31;99885.34;1599543;88;21040;-68
2023/06/08 03:37:55;;;;;;;10.78;7.10;;;;;;;12.11;67.33;99870.16;1598953;88;21039;-66
2023/06/08 03:40:21;;;;;;;13.72;7.22;;;;;;;12.11;67.33;99870.16;1591724;88;21107;-69
2023/06/08 03:42:50;;;;;;;12.73;7.65;;;;;;;12.30;67.49;99884.00;1604992;88;20980;-64
2023/06/08 03:45:16;;;;;;;12.30;7.53;;;;;;;12.39;67.42;99885.77;1595796;88;21102;-67
2023/06/08 03:47:42;;;;;;;12.80;8.40;;;;;;;12.51;67.52;99887.72;1595187;88;21069;-65
2023/06/08 03:50:14;;;;;;;32.33;10.30;;;;;;;12.63;67.65;99884.48;1578688;88;21540;-66
2023/06/08 03:52:41;;;;;;;17.17;8.35;;;;;;;12.71;67.71;99867.86;1595517;88;21079;-66
2023/06/08 03:55:11;;;;;;;22.20;8.28;;;;;;;12.98;67.71;99879.09;1591369;88;21092;-65
2023/06/08 03:57:37;;;;;;;16.10;7.92;;;;;;;13.14;67.77;99876.02;1575058;89;21069;-70
2023/06/08 04:00:11;;;;;;;11.53;7.70;;;;;;;13.34;67.85;99876.72;1583369;88;21366;-68
2023/06/08 04:02:37;;;;;;;19.20;8.68;;;;;;;13.53;67.81;99873.44;1596171;88;21886;-63
2023/06/08 04:05:06;;;;;;;13.32;8.48;;;;;;;13.70;67.83;99867.69;1594192;88;21080;-69
2023/06/08 04:07:34;;;;;;;16.42;8.13;;;;;;;13.88;67.79;99870.54;1593306;88;21059;-70
2023/06/08 04:10:04;;;;;;;12.60;7.87;;;;;;;14.03;67.78;99864.41;1576032;89;21087;-69
2023/06/08 04:12:31;;;;;;;13.00;6.78;;;;;;;14.19;67.87;99862.16;1586076;89;21106;-69
2023/06/08 04:14:58;;;;;;;12.60;8.05;;;;;;;14.32;67.87;99869.69;1584562;89;20987;-70
2023/06/08 04:17:27;;;;;;;10.48;7.03;;;;;;;14.49;68.12;99873.92;1585458;89;21071;-70
2023/06/08 04:19:53;;;;;;;11.33;7.30;;;;;;;14.69;68.14;99874.03;1587070;89;20985;-64
2023/06/08 04:22:20;;;;;;;10.60;7.25;;;;;;;14.90;68.18;99867.45;1585213;89;21150;-69
2023/06/08 04:24:47;;;;;;;12.00;6.92;;;;;;;15.18;68.35;99869.66;1587036;89;21516;-62
2023/06/08 04:27:14;;;;;;;9.85;6.60;;;;;;;15.44;68.20;99868.80;1549423;91;21065;-64
2023/06/08 04:29:41;;;;;;;9.20;6.70;;;;;;;15.62;68.13;99861.47;1561456;91;21611;-66
2023/06/08 04:32:07;;;;;;;10.82;6.12;;;;;;;15.80;68.07;99862.09;1589865;89;21036;-63
2023/06/08 04:34:34;;;;;;;11.22;6.60;;;;;;;15.97;67.96;99862.76;1591198;89;21383;-64
2023/06/08 04:37:00;;;;;;;8.77;7.17;;;;;;;16.06;67.81;99864.77;1581709;89;21020;-67
2023/06/08 04:39:29;;;;;;;15.30;7.57;;;;;;;16.12;67.71;99861.70;1591025;89;21069;-67
2023/06/08 04:41:57;;;;;;;10.03;6.90;;;;;;;16.15;67.50;99855.39;1574093;89;21080;-67
2023/06/08 04:44:25;;;;;;;9.90;5.33;;;;;;;16.19;67.53;99860.36;1574912;89;21018;-72
2023/06/08 04:46:56;;;;;;;5.90;4.58;;;;;;;16.30;67.33;99865.73;1556582;89;21491;-75
2023/06/08 04:49:31;;;;;;;7.70;5.30;;;;;;;16.43;67.37;99859.60;1575253;89;21086;-71
2023/06/08 04:51:55;;;;;;;8.65;5.97;;;;;;;16.63;67.54;99859.05;1606752;88;21539;-67
2023/06/08 04:54:21;;;;;;;9.05;4.97;;;;;;;16.84;67.54;99854.58;1609071;88;21401;-67
2023/06/08 04:56:47;;;;;;;7.12;5.42;;;;;;;17.05;67.37;99850.86;1609900;88;21036;-66
2023/06/08 04:59:14;;;;;;;7.30;5.33;;;;;;;17.28;67.29;99854.47;1610521;88;21043;-67
2023/06/08 05:01:40;;;;;;;9.83;4.60;;;;;;;17.50;66.92;99846.66;1611627;88;21657;-66
2023/06/08 05:04:07;;;;;;;6.83;4.60;;;;;;;17.70;66.48;99844.33;1599121;88;21335;-66
2023/06/08 05:06:35;;;;;;;10.03;4.87;;;;;;;17.86;66.35;99845.73;1604167;88;21075;-67
2023/06/08 05:09:02;;;;;;;10.32;4.60;;;;;;;18.00;66.11;99842.05;1612691;88;21160;-66
2023/06/08 05:11:30;;;;;;;8.60;5.05;;;;;;;18.20;66.08;99847.61;1600025;88;21083;-65
2023/06/08 05:13:56;;;;;;;6.05;3.40;;;;;;;18.44;65.79;99843.55;1594316;88;21515;-66
2023/06/08 05:16:23;;;;;;;4.47;2.92;;;;;;;18.72;65.46;99846.19;1600897;88;21456;-66
2023/06/08 05:18:49;;;;;;;4.80;2.83;;;;;;;19.02;65.04;99832.36;1586640;88;21010;-64
2023/06/08 05:21:15;;;;;;;5.08;3.02;;;;;;;19.32;64.21;99839.59;1591441;88;21140;-66
2023/06/08 05:23:42;;;;;;;6.97;2.55;;;;;;;19.60;63.88;99840.80;1590986;88;21066;-66
2023/06/08 05:26:09;;;;;;;6.17;2.83;;;;;;;19.84;62.82;99841.93;1567780;90;21030;-63
2023/06/08 05:28:35;;;;;;;5.87;2.50;;;;;;;20.08;62.79;99842.14;1542999;92;21106;-64
2023/06/08 05:31:02;;;;;;;5.97;2.77;;;;;;;20.28;62.00;99843.95;1523879;92;21020;-64
2023/06/08 05:33:28;;;;;;;8.45;2.58;;;;;;;20.33;60.53;99820.53;1559368;91;20970;-63
2023/06/08 05:35:54;;;;;;;5.72;2.50;;;;;;;20.33;60.53;99820.53;1562987;91;21607;-65
2023/06/08 05:38:21;;;;;;;3.58;2.65;;;;;;;20.62;59.29;99845.04;1562659;91;21563;-65
2023/06/08 05:40:47;;;;;;;4.85;2.58;;;;;;;20.82;56.93;99841.13;1564899;91;20978;-65
2023/06/08 05:43:13;;;;;;;13.72;3.35;;;;;;;20.99;58.03;99841.30;1563210;91;21021;-66
2023/06/08 05:45:40;;;;;;;2.77;2.43;;;;;;;21.16;57.72;99842.45;1565460;91;21104;-63
2023/06/08 05:48:08;;;;;;;7.22;2.95;;;;;;;21.33;57.07;99845.41;1603759;88;21073;-64
2023/06/08 05:50:34;;;;;;;6.92;2.92;;;;;;;21.50;56.74;99844.74;1598783;88;21047;-63
2023/06/08 05:53:00;;;;;;;5.50;3.02;;;;;;;21.64;55.11;99840.33;1591085;88;21048;-65
2023/06/08 05:55:27;;;;;;;5.07;2.33;;;;;;;21.79;55.75;99838.57;1594136;88;21583;-65
2023/06/08 05:57:53;;;;;;;3.42;2.62;;;;;;;21.98;55.05;99839.04;1592078;88;21050;-66
2023/06/08 06:00:21;;;;;;;4.27;2.70;;;;;;;22.13;54.48;99850.42;1596131;88;21041;-62
2023/06/08 06:02:47;;;;;;;4.65;2.98;;;;;;;22.18;53.79;99844.72;1588242;88;21043;-64
2023/06/08 06:05:14;;;;;;;4.97;3.00;;;;;;;22.31;53.04;99847.05;1600022;88;21000;-64
2023/06/08 06:07:41;;;;;;;44.67;16.60;;;;;;;22.39;52.70;99845.83;1590473;88;21016;-65
2023/06/08 06:10:09;;;;;;;11.22;3.55;;;;;;;22.45;52.46;99841.25;1566003;89;21021;-64
2023/06/08 06:12:35;;;;;;;6.50;3.47;;;;;;;22.50;52.25;99842.98;1572001;90;21041;-65
2023/06/08 06:15:02;;;;;;;7.58;2.95;;;;;;;22.62;51.39;99853.44;1565331;90;21052;-64
2023/06/08 06:17:29;;;;;;;3.45;2.60;;;;;;;22.78;51.49;99856.31;1563915;90;21029;-65
2023/06/08 06:19:55;;;;;;;4.12;2.80;;;;;;;22.95;51.11;99859.54;1567439;90;21036;-65
2023/06/08 06:22:22;;;;;;;4.22;2.60;;;;;;;23.12;50.91;99851.73;1562655;90;20954;-65
2023/06/08 06:24:48;;;;;;;3.47;2.73;;;;;;;23.33;49.94;99852.30;1565886;90;21595;-62
2023/06/08 06:27:14;;;;;;;3.85;2.70;;;;;;;23.50;50.00;99853.30;1567327;90;21562;-64
2023/06/08 06:29:41;;;;;;;8.03;2.70;;;;;;;23.67;49.57;99858.28;1567967;90;21040;-64
2023/06/08 06:32:08;;;;;;;3.98;2.90;;;;;;;23.84;49.00;99853.45;1567712;90;21085;-64
2023/06/08 06:34:35;;;;;;;6.10;2.70;;;;;;;24.00;48.38;99855.87;1525244;92;21109;-64
2023/06/08 06:37:01;;;;;;;10.60;2.75;;;;;;;24.14;48.80;99856.64;1561220;90;21060;-65
2023/06/08 06:39:30;;;;;;;8.05;2.80;;;;;;;24.38;48.14;99847.13;1570547;90;21071;-63
2023/06/08 06:41:57;;;;;;;4.87;2.87;;;;;;;24.59;47.82;99851.63;1563521;90;21088;-63
2023/06/08 06:44:24;;;;;;;5.03;2.45;;;;;;;24.84;47.46;99856.53;1562838;90;21580;-63
2023/06/08 06:46:50;;;;;;;6.17;2.67;;;;;;;25.22;47.71;99851.18;1564363;90;21580;-64
2023/06/08 06:49:16;;;;;;;4.50;2.60;;;;;;;25.70;46.92;99850.06;1564301;90;21611;-64
2023/06/08 06:51:43;;;;;;;4.25;2.85;;;;;;;26.07;46.80;99853.57;1569697;90;21917;-63
2023/06/08 06:54:10;;;;;;;4.08;2.83;;;;;;;26.62;46.74;99857.84;1562487;90;21519;-62
2023/06/08 06:56:37;;;;;;;3.55;2.47;;;;;;;27.31;46.66;99850.82;1560843;90;21643;-65
2023/06/08 06:59:05;;;;;;;10.03;3.20;;;;;;;28.38;46.51;99857.97;1564689;90;21017;-64
2023/06/08 07:01:35;;;;;;;13.38;2.98;;;;;;;29.29;45.28;99855.84;1564441;90;21042;-65
2023/06/08 07:03:59;;;;;;;8.90;3.05;;;;;;;30.13;45.14;99848.44;1570498;90;21076;-63
2023/06/08 07:06:26;;;;;;;3.45;2.80;;;;;;;30.96;44.89;99848.00;1560713;90;21009;-65
2023/06/08 07:08:52;;;;;;;4.47;2.70;;;;;;;32.04;44.29;99854.72;1558466;89;21018;-65
2023/06/08 07:11:19;;;;;;;8.78;3.33;;;;;;;32.93;43.52;99838.39;1564226;90;21068;-64
2023/06/08 07:13:45;;;;;;;7.83;2.90;;;;;;;33.98;41.85;99855.53;1565658;90;21042;-64
2023/06/08 07:16:12;;;;;;;;;;;;;;;34.54;41.33;99849.97;1563707;90;21113;-64
2023/06/08 07:18:39;;;;;;;7.45;2.83;;;;;;;34.95;39.23;99848.47;1561642;90;20178;-64
2023/06/08 07:21:06;;;;;;;6.75;2.77;;;;;;;35.49;39.55;99851.77;1564477;90;20935;-64
2023/06/08 07:23:32;;;;;;;8.00;2.80;;;;;;;36.48;39.69;99845.19;1552758;90;21006;-66
2023/06/08 07:25:58;;;;;;;;;;;;;;;37.51;38.75;99843.97;1556885;90;21652;-65
2023/06/08 07:28:25;;;;;;;9.23;3.00;;;;;;;38.68;36.48;99841.63;1560475;90;20142;-65
2023/06/08 07:30:51;;;;;;;6.05;2.50;;;;;;;39.76;36.75;99845.47;1556512;90;21012;-65
2023/06/08 07:33:17;;;;;;;7.20;2.58;;;;;;;40.38;35.20;99845.32;1557598;90;21030;-65
2023/06/08 07:35:43;;;;;;;5.10;2.47;;;;;;;41.13;34.81;99841.23;1552715;90;21010;-66
2023/06/08 07:38:10;;;;;;;9.75;2.77;;;;;;;42.33;33.57;99839.02;1562536;90;21028;-67
2023/06/08 07:40:37;;;;;;;10.93;2.55;;;;;;;43.01;32.13;99831.55;1559913;90;21052;-66
2023/06/08 07:43:05;;;;;;;6.10;2.33;;;;;;;43.76;31.42;99832.64;1564020;90;20987;-66
2023/06/08 07:45:32;;;;;;;10.35;2.40;;;;;;;44.71;30.18;99838.47;1563275;90;21055;-66
2023/06/08 07:48:00;;;;;;;6.90;2.10;;;;;;;45.19;29.10;99828.72;1555849;90;21016;-65
2023/06/08 07:50:26;;;;;;;6.97;2.50;;;;;;;45.63;27.74;99830.75;1567212;90;21087;-66
2023/06/08 07:52:52;;;;;;;3.80;2.70;;;;;;;46.15;26.87;99832.27;1558444;90;21021;-67
2023/06/08 07:55:23;;;;;;;4.20;2.20;;;;;;;46.42;25.93;99828.71;1563688;90;22499;-67
2023/06/08 07:57:48;;;;;;;6.10;2.60;;;;;;;47.05;25.38;99823.48;1560590;90;21088;-66
2023/06/08 08:00:16;;;;;;;4.53;2.42;;;;;;;47.61;23.89;99822.08;1560763;90;21060;-67
2023/06/08 08:02:44;;;;;;;7.47;2.85;;;;;;;47.87;23.08;99821.41;1553011;90;21034;-65
2023/06/08 08:05:11;;;;;;;8.05;2.55;;;;;;;47.02;22.73;99815.78;1564900;90;21036;-66
2023/06/08 08:07:39;;;;;;;6.55;2.60;;;;;;;47.74;21.81;99817.03;1564642;90;21025;-67
2023/06/08 08:10:07;;;;;;;5.12;2.42;;;;;;;48.54;21.16;99812.89;1534172;92;21164;-66
2023/06/08 08:12:34;;;;;;;8.00;2.37;;;;;;;49.28;20.14;99813.89;1510077;93;21608;-67
2023/06/08 08:15:00;;;;;;;7.72;2.35;;;;;;;49.59;19.71;99811.47;1507483;93;21652;-66
2023/06/08 08:17:27;;;;;;;4.00;2.30;;;;;;;50.21;19.06;99820.59;1520578;92;21088;-67
2023/06/08 08:19:53;;;;;;;5.22;3.00;;;;;;;50.58;18.42;99812.52;1562848;90;21196;-66
2023/06/08 08:22:19;;;;;;;4.37;3.00;;;;;;;50.94;18.03;99811.12;1564079;90;21047;-66
2023/06/08 08:24:49;;;;;;;6.42;2.72;;;;;;;51.14;17.30;99806.11;1560619;90;21095;-67
2023/06/08 08:27:15;;;;;;;6.33;2.65;;;;;;;49.55;16.89;99807.14;1557642;90;21003;-66
2023/06/08 08:29:42;;;;;;;5.75;2.58;;;;;;;50.01;16.72;99808.30;1559697;90;21040;-66
2023/06/08 08:32:08;;;;;;;3.55;2.67;;;;;;;50.87;16.31;99805.28;1565007;90;21051;-66
2023/06/08 08:34:34;;;;;;;4.58;2.50;;;;;;;51.65;15.92;99808.13;1560610;90;21079;-66
2023/06/08 08:37:01;;;;;;;6.12;2.58;;;;;;;52.11;15.58;99808.88;1556527;90;21111;-65
2023/06/08 08:39:27;;;;;;;4.35;2.60;;;;;;;52.55;14.96;99804.08;1561651;90;21546;-68
2023/06/08 08:41:57;;;;;;;4.92;2.95;;;;;;;52.39;14.75;99803.98;1562618;90;21046;-67
2023/06/08 08:44:23;;;;;;;7.25;3.10;;;;;;;52.84;14.33;99804.34;1559256;90;21036;-66
2023/06/08 08:46:50;;;;;;;3.72;2.52;;;;;;;53.41;14.11;99796.17;1563272;90;21027;-66
2023/06/08 08:49:17;;;;;;;4.72;2.83;;;;;;;53.71;13.53;99795.77;1555533;90;20996;-67
2023/06/08 08:51:52;;;;;;;3.83;3.10;;;;;;;53.75;13.26;99803.63;1559966;90;21003;-66
2023/06/08 08:54:31;;;;;;;5.17;2.83;;;;;;;53.55;12.95;99794.92;1562489;90;21124;-68
2023/06/08 08:56:55;;;;;;;4.72;3.30;;;;;;;54.05;12.79;99795.59;1559697;90;21067;-65
2023/06/08 08:59:23;;;;;;;10.18;2.80;;;;;;;54.40;12.51;99789.23;1558820;90;21046;-67
2023/06/08 09:01:49;;;;;;;5.53;3.10;;;;;;;54.30;12.06;99784.98;1563719;90;21039;-66
2023/06/08 09:04:16;;;;;;;10.98;3.30;;;;;;;54.35;11.92;99780.33;1562314;90;21028;-66
2023/06/08 09:06:47;;;;;;;6.60;3.02;;;;;;;54.65;11.59;99778.61;1556363;90;21048;-66
2023/06/08 09:09:14;;;;;;;3.52;3.05;;;;;;;55.03;11.38;99786.74;1563172;90;21164;-67
2023/06/08 09:12:01;;;;;;;18.35;3.98;;;;;;;55.00;11.28;99777.70;1594090;89;21135;-67
2023/06/08 09:14:28;;;;;;;5.10;3.33;;;;;;;54.31;10.91;99778.23;1596005;89;21099;-67
2023/06/08 09:16:58;;;;;;;4.50;3.05;;;;;;;54.87;10.88;99781.80;1594405;89;21024;-68
2023/06/08 09:19:24;;;;;;;5.92;3.52;;;;;;;55.47;10.64;99776.56;1590440;89;21036;-66
2023/06/08 09:21:51;;;;;;;4.47;3.50;;;;;;;55.28;10.19;99771.01;1541977;92;21010;-66
2023/06/08 09:24:21;;;;;;;5.20;3.83;;;;;;;54.56;10.05;99768.19;1548468;91;21020;-66
2023/06/08 09:26:53;;;;;;;3.52;3.10;;;;;;;53.36;10.18;99772.75;1555660;91;20998;-67
2023/06/08 09:29:31;;;;;;;4.50;3.42;;;;;;;54.17;10.24;99766.73;1507648;93;21105;-67
2023/06/08 09:32:00;;;;;;;5.90;4.00;;;;;;;54.61;9.98;99774.08;1589011;89;20962;-67
2023/06/08 09:34:29;;;;;;;3.55;3.25;;;;;;;55.12;9.68;99766.32;1546653;91;21562;-66
2023/06/08 09:37:10;;;;;;;6.65;3.50;;;;;;;55.27;9.71;99762.38;1548095;91;20972;-66
2023/06/08 09:39:41;;;;;;;5.25;3.62;;;;;;;55.81;9.57;99762.73;1522326;92;21563;-66
2023/06/08 09:42:08;;;;;;;5.12;3.47;;;;;;;56.74;9.36;99761.21;1577332;89;21087;-66
2023/06/08 09:44:35;;;;;;;7.78;3.75;;;;;;;55.14;9.18;99758.38;1580996;89;21088;-65
2023/06/08 09:47:17;;;;;;;7.00;3.80;;;;;;;55.66;9.17;99762.28;1576924;89;21037;-64
2023/06/08 09:49:43;;;;;;;3.83;3.52;;;;;;;56.19;8.91;99763.67;1550508;91;21604;-66
2023/06/08 09:52:09;;;;;;;4.12;3.62;;;;;;;56.47;8.82;99758.48;1550727;91;21055;-66
2023/06/08 09:54:36;;;;;;;4.75;3.80;;;;;;;54.91;8.55;99759.73;1548988;91;21079;-66
2023/06/08 09:57:05;;;;;;;5.90;3.60;;;;;;;55.06;8.84;99758.02;1543715;91;21026;-66
2023/06/08 09:59:36;;;;;;;5.60;3.33;;;;;;;56.07;8.79;99752.92;1541562;91;21033;-65
2023/06/08 10:02:15;;;;;;;4.50;3.52;;;;;;;56.73;8.44;99754.00;1550657;90;21985;-66
2023/06/08 10:04:45;;;;;;;5.85;4.28;;;;;;;56.99;8.53;99757.89;1544099;91;21061;-68
2023/06/08 10:07:19;;;;;;;5.53;3.98;;;;;;;57.09;8.32;99752.99;1547568;91;21527;-68
2023/06/08 10:09:48;;;;;;;4.72;4.03;;;;;;;57.24;8.31;99757.55;1551508;91;21126;-67
2023/06/08 10:12:15;;;;;;;5.22;4.58;;;;;;;57.98;8.08;99754.31;1553724;91;21027;-66
2023/06/08 10:14:43;;;;;;;5.33;4.60;;;;;;;57.94;7.76;99749.29;1559532;90;20971;-66
2023/06/08 10:17:10;;;;;;;5.00;4.58;;;;;;;57.01;7.90;99743.69;1552746;91;21478;-67
2023/06/08 10:19:37;;;;;;;5.30;4.80;;;;;;;55.91;7.71;99740.25;1557623;90;21013;-67
2023/06/08 10:22:04;;;;;;;7.00;3.95;;;;;;;55.33;7.72;99740.75;1540186;91;21057;-68
2023/06/08 10:24:31;;;;;;;4.78;4.30;;;;;;;55.56;7.61;99737.91;1548345;90;21096;-67
2023/06/08 10:27:10;;;;;;;4.50;3.92;;;;;;;56.05;7.43;99739.91;1555661;91;21559;-64
2023/06/08 10:29:38;;;;;;;10.30;4.10;;;;;;;56.15;7.39;99734.81;1563310;90;21028;-66
2023/06/08 10:32:07;;;;;;;4.30;3.72;;;;;;;55.77;7.28;99732.45;1566686;90;21040;-65
2023/06/08 10:34:41;;;;;;;6.92;3.90;;;;;;;56.08;7.43;99733.55;1567348;90;21647;-65
2023/06/08 10:37:09;;;;;;;;;;;;;;;56.58;7.28;99738.19;1559415;90;21570;-66
2023/06/08 10:39:48;;;;;;;4.03;3.60;;;;;;;56.70;6.88;99735.14;1552525;91;20167;-65
2023/06/08 10:42:22;;;;;;;8.05;3.35;;;;;;;56.61;7.11;99734.62;1532656;92;21042;-65
2023/06/08 10:44:54;;;;;;;3.72;3.22;;;;;;;56.59;6.97;99731.41;1555875;90;21075;-66
2023/06/08 10:47:22;;;;;;;3.95;3.27;;;;;;;56.38;7.01;99731.33;1555957;90;21074;-65
2023/06/08 10:50:03;;;;;;;3.60;3.30;;;;;;;56.63;7.04;99723.83;1567147;91;21053;-65
2023/06/08 10:52:42;;;;;;;6.70;3.10;;;;;;;56.69;6.76;99725.09;1583069;89;21073;-65
2023/06/08 10:55:13;;;;;;;10.60;2.83;;;;;;;54.88;6.72;99721.92;1588576;89;20973;-64
2023/06/08 10:57:43;;;;;;;3.42;2.80;;;;;;;51.93;6.94;99715.58;1572303;89;21048;-66
2023/06/08 11:00:30;;;;;;;4.67;2.33;;;;;;;49.56;7.23;99711.66;1588202;89;21115;-66
2023/06/08 11:03:06;;;;;;;5.72;2.08;;;;;;;47.56;7.47;99714.34;1583278;89;21036;-66
2023/06/08 11:05:38;;;;;;;6.47;2.90;;;;;;;45.50;7.70;99715.98;1550856;91;20989;-65
2023/06/08 11:08:09;;;;;;;4.28;2.40;;;;;;;44.79;8.12;99718.56;1580055;89;21053;-65
2023/06/08 11:10:39;;;;;;;28.35;3.70;;;;;;;43.80;8.26;99712.69;1588533;89;21579;-65
2023/06/08 11:13:09;;;;;;;5.90;2.60;;;;;;;42.33;8.68;99721.03;1587194;89;21060;-64
2023/06/08 11:15:46;;;;;;;4.03;2.58;;;;;;;40.87;9.07;99721.81;1598004;89;21061;-64
2023/06/08 11:18:13;;;;;;;6.42;2.80;;;;;;;40.27;9.57;99724.91;1584476;89;21044;-64
2023/06/08 11:20:42;;;;;;;3.55;2.35;;;;;;;40.18;9.98;99718.30;1592930;89;21079;-64
2023/06/08 11:23:13;;;;;;;6.83;2.90;;;;;;;41.36;10.26;99710.30;1589550;89;21077;-66
2023/06/08 11:25:43;;;;;;;4.20;2.62;;;;;;;42.89;10.41;99704.20;1595022;89;21068;-66
2023/06/08 11:28:11;;;;;;;9.88;2.40;;;;;;;44.08;10.29;99704.67;1580134;89;21080;-67
2023/06/08 11:30:38;;;;;;;4.95;2.55;;;;;;;43.32;10.26;99709.88;1576314;89;21106;-66
2023/06/08 11:33:14;;;;;;;3.85;2.80;;;;;;;42.35;10.60;99707.86;1588775;89;21051;-67
2023/06/08 11:35:37;;;;;;;3.83;2.50;;;;;;;42.50;10.86;99696.52;1578711;89;21012;-68
2023/06/08 11:38:09;;;;;;;9.93;2.40;;;;;;;43.55;10.89;99697.86;1559022;89;21555;-67